sensor_id;sensor_type;location;lat;lon;timestamp;pressure;altitude;pressure_sealevel;temperature;humidity
24746;BME280;12845;52.042;6.838;2022-12-15T00:02:28;65936.09;;;-7.70;100.00
24746;BME280;12845;52.042;6.838;2022-12-15T00:05:12;65944.81;;;-7.65;100.00
24746;BME280;12845;52.042;6.838;2022-12-15T00:08:04;65940.34;;;-7.69;100.00
24746;BME280;12845;52.042;6.838;2022-12-15T00:10:49;65923.97;;;-7.86;100.00
24746;BME280;12845;52.042;6.838;2022-12-15T00:13:32;65926.53;;;-7.86;100.00
24746;BME280;12845;52.042;6.838;2022-12-15T00:16:16;65940.13;;;-7.72;100.00
24746;BME280;12845;52.042;6.838;2022-12-15T00:19:00;65935.69;;;-7.76;100.00
24746;BME280;12845;52.042;6.838;2022-12-15T00:21:44;65931.03;;;-7.82;100.00
24746;BME280;12845;52.042;6.838;2022-12-15T00:24:28;65924.72;;;-7.83;100.00
24746;BME280;12845;52.042;6.838;2022-12-15T00:27:11;65929.97;;;-7.76;100.00
24746;BME280;12845;52.042;6.838;2022-12-15T00:29:55;65940.00;;;-7.67;100.00
24746;BME280;12845;52.042;6.838;2022-12-15T00:32:39;65928.84;;;-7.77;100.00
24746;BME280;12845;52.042;6.838;2022-12-15T00:35:23;65930.66;;;-7.80;100.00
24746;BME280;12845;52.042;6.838;2022-12-15T00:38:08;65927.84;;;-7.83;100.00
24746;BME280;12845;52.042;6.838;2022-12-15T00:40:52;65933.66;;;-7.75;100.00
24746;BME280;12845;52.042;6.838;2022-12-15T00:43:24;65947.97;;;-7.64;100.00
24746;BME280;12845;52.042;6.838;2022-12-15T00:45:49;65950.97;;;-7.59;100.00
24746;BME280;12845;52.042;6.838;2022-12-15T00:48:33;65940.34;;;-7.69;100.00
24746;BME280;12845;52.042;6.838;2022-12-15T00:50:58;65940.91;;;-7.68;100.00
24746;BME280;12845;52.042;6.838;2022-12-15T00:53:24;65951.88;;;-7.61;100.00
24746;BME280;12845;52.042;6.838;2022-12-15T00:56:08;65956.31;;;-7.57;100.00
24746;BME280;12845;52.042;6.838;2022-12-15T00:58:53;65948.16;;;-7.62;100.00
24746;BME280;12845;52.042;6.838;2022-12-15T01:01:37;65941.81;;;-7.70;100.00
24746;BME280;12845;52.042;6.838;2022-12-15T01:04:22;65942.25;;;-7.65;100.00
24746;BME280;12845;52.042;6.838;2022-12-15T01:07:06;65938.91;;;-7.68;100.00
24746;BME280;12845;52.042;6.838;2022-12-15T01:09:50;65942.94;;;-7.69;100.00
24746;BME280;12845;52.042;6.838;2022-12-15T01:12:34;65960.44;;;-7.51;100.00
24746;BME280;12845;52.042;6.838;2022-12-15T01:18:01;65985.38;;;-7.30;100.00
24746;BME280;12845;52.042;6.838;2022-12-15T01:21:03;65987.25;;;-7.26;100.00
24746;BME280;12845;52.042;6.838;2022-12-15T01:23:30;65993.94;;;-7.20;100.00
24746;BME280;12845;52.042;6.838;2022-12-15T01:25:56;66022.56;;;-6.98;100.00
24746;BME280;12845;52.042;6.838;2022-12-15T01:28:22;66013.47;;;-7.02;100.00
24746;BME280;12845;52.042;6.838;2022-12-15T01:30:48;66026.69;;;-6.92;100.00
24746;BME280;12845;52.042;6.838;2022-12-15T01:33:16;66020.19;;;-6.96;100.00
24746;BME280;12845;52.042;6.838;2022-12-15T01:35:41;66006.38;;;-7.13;100.00
24746;BME280;12845;52.042;6.838;2022-12-15T01:38:08;65980.53;;;-7.32;100.00
24746;BME280;12845;52.042;6.838;2022-12-15T01:40:34;65994.09;;;-7.24;100.00
24746;BME280;12845;52.042;6.838;2022-12-15T01:43:12;66011.59;;;-7.06;100.00
24746;BME280;12845;52.042;6.838;2022-12-15T01:53:32;66008.25;;;-7.09;100.00
24746;BME280;12845;52.042;6.838;2022-12-15T01:55:59;66010.50;;;-7.07;100.00
24746;BME280;12845;52.042;6.838;2022-12-15T01:58:25;66007.69;;;-7.10;100.00
24746;BME280;12845;52.042;6.838;2022-12-15T02:00:50;66032.81;;;-6.87;100.00
24746;BME280;12845;52.042;6.838;2022-12-15T02:03:16;66033.19;;;-6.89;100.00
24746;BME280;12845;52.042;6.838;2022-12-15T02:05:43;66030.25;;;-6.87;100.00
24746;BME280;12845;52.042;6.838;2022-12-15T02:08:08;66015.91;;;-6.97;100.00
24746;BME280;12845;52.042;6.838;2022-12-15T02:13:36;66027.44;;;-6.89;100.00
24746;BME280;12845;52.042;6.838;2022-12-15T02:16:15;66027.44;;;-6.89;100.00
24746;BME280;12845;52.042;6.838;2022-12-15T02:18:50;66038.06;;;-6.79;100.00
24746;BME280;12845;52.042;6.838;2022-12-15T02:21:37;66041.97;;;-6.76;100.00
24746;BME280;12845;52.042;6.838;2022-12-15T02:30:13;65995.25;;;-7.16;100.00
24746;BME280;12845;52.042;6.838;2022-12-15T02:32:48;65970.72;;;-7.39;100.00
24746;BME280;12845;52.042;6.838;2022-12-15T02:35:21;65947.81;;;-7.60;100.00
24746;BME280;12845;52.042;6.838;2022-12-15T02:37:49;65948.38;;;-7.59;100.00
24746;BME280;12845;52.042;6.838;2022-12-15T02:40:15;65958.00;;;-7.55;100.00
24746;BME280;12845;52.042;6.838;2022-12-15T02:43:00;65955.97;;;-7.55;100.00
24746;BME280;12845;52.042;6.838;2022-12-15T02:45:54;65954.88;;;-7.56;100.00
24746;BME280;12845;52.042;6.838;2022-12-15T02:51:33;65963.44;;;-7.45;100.00
24746;BME280;12845;52.042;6.838;2022-12-15T02:54:21;65970.84;;;-7.43;100.00
24746;BME280;12845;52.042;6.838;2022-12-15T02:59:45;65972.16;;;-7.40;100.00
24746;BME280;12845;52.042;6.838;2022-12-15T03:02:21;65969.19;;;-7.45;100.00
24746;BME280;12845;52.042;6.838;2022-12-15T03:04:48;65973.28;;;-7.39;100.00
24746;BME280;12845;52.042;6.838;2022-12-15T03:07:13;65962.66;;;-7.49;100.00
24746;BME280;12845;52.042;6.838;2022-12-15T03:09:39;65968.59;;;-7.45;100.00
24746;BME280;12845;52.042;6.838;2022-12-15T03:12:05;65965.25;;;-7.49;100.00
24746;BME280;12845;52.042;6.838;2022-12-15T03:14:30;65963.44;;;-7.45;100.00
24746;BME280;12845;52.042;6.838;2022-12-15T03:16:56;65945.94;;;-7.64;100.00
24746;BME280;12845;52.042;6.838;2022-12-15T03:19:21;65955.75;;;-7.57;100.00
24746;BME280;12845;52.042;6.838;2022-12-15T03:21:47;65949.63;;;-7.63;100.00
24746;BME280;12845;52.042;6.838;2022-12-15T03:24:12;65945.59;;;-7.62;100.00
24746;BME280;12845;52.042;6.838;2022-12-15T03:26:37;65952.97;;;-7.60;100.00
24746;BME280;12845;52.042;6.838;2022-12-15T03:29:03;65943.34;;;-7.64;100.00
24746;BME280;12845;52.042;6.838;2022-12-15T03:31:28;65964.16;;;-7.50;100.00
24746;BME280;12845;52.042;6.838;2022-12-15T03:33:53;65963.22;;;-7.48;100.00
24746;BME280;12845;52.042;6.838;2022-12-15T03:38:47;65968.81;;;-7.43;100.00
24746;BME280;12845;52.042;6.838;2022-12-15T03:41:12;65957.78;;;-7.58;100.00
24746;BME280;12845;52.042;6.838;2022-12-15T03:43:37;65943.69;;;-7.66;100.00
24746;BME280;12845;52.042;6.838;2022-12-15T03:46:03;65940.69;;;-7.71;100.00
24746;BME280;12845;52.042;6.838;2022-12-15T03:48:29;65937.34;;;-7.74;100.00
24746;BME280;12845;52.042;6.838;2022-12-15T03:50:54;65949.63;;;-7.63;100.00
24746;BME280;12845;52.042;6.838;2022-12-15T03:53:19;65957.78;;;-7.58;100.00
24746;BME280;12845;52.042;6.838;2022-12-15T03:55:45;65945.16;;;-7.67;100.00
24746;BME280;12845;52.042;6.838;2022-12-15T03:58:10;65948.72;;;-7.61;100.00
24746;BME280;12845;52.042;6.838;2022-12-15T04:00:35;65932.91;;;-7.78;100.00
24746;BME280;12845;52.042;6.838;2022-12-15T04:03:01;65944.06;;;-7.68;100.00
24746;BME280;12845;52.042;6.838;2022-12-15T04:05:29;65945.38;;;-7.64;100.00
24746;BME280;12845;52.042;6.838;2022-12-15T04:07:56;65937.00;;;-7.72;100.00
24746;BME280;12845;52.042;6.838;2022-12-15T04:10:23;65945.16;;;-7.67;100.00
24746;BME280;12845;52.042;6.838;2022-12-15T04:12:55;65948.94;;;-7.59;100.00
24746;BME280;12845;52.042;6.838;2022-12-15T04:15:20;65953.34;;;-7.62;100.00
24746;BME280;12845;52.042;6.838;2022-12-15T04:17:46;65925.84;;;-7.82;100.00
24746;BME280;12845;52.042;6.838;2022-12-15T04:20:11;65935.47;;;-7.78;100.00
24746;BME280;12845;52.042;6.838;2022-12-15T04:22:41;65926.97;;;-7.81;100.00
24746;BME280;12845;52.042;6.838;2022-12-15T04:25:09;65927.31;;;-7.83;100.00
24746;BME280;12845;52.042;6.838;2022-12-15T04:27:53;65916.16;;;-7.93;100.00
24746;BME280;12845;52.042;6.838;2022-12-15T04:33:23;65917.25;;;-7.92;100.00
24746;BME280;12845;52.042;6.838;2022-12-15T04:36:09;65932.00;;;-7.77;100.00
24746;BME280;12845;52.042;6.838;2022-12-15T04:38:54;65945.16;;;-7.67;100.00
24746;BME280;12845;52.042;6.838;2022-12-15T04:41:37;65942.38;;;-7.69;100.00
24746;BME280;12845;52.042;6.838;2022-12-15T04:44:22;65917.13;;;-7.88;100.00
24746;BME280;12845;52.042;6.838;2022-12-15T04:47:06;65928.03;;;-7.87;100.00
24746;BME280;12845;52.042;6.838;2022-12-15T04:49:50;65916.56;;;-7.88;100.00
24746;BME280;12845;52.042;6.838;2022-12-15T04:52:33;65916.50;;;-7.96;100.00
24746;BME280;12845;52.042;6.838;2022-12-15T04:55:17;65919.50;;;-7.90;100.00
24746;BME280;12845;52.042;6.838;2022-12-15T04:58:06;65934.00;;;-7.77;100.00
24746;BME280;12845;52.042;6.838;2022-12-15T05:00:50;65905.41;;;-7.99;100.00
24746;BME280;12845;52.042;6.838;2022-12-15T05:03:34;65906.88;;;-8.00;100.00
24746;BME280;12845;52.042;6.838;2022-12-15T05:06:19;65927.84;;;-7.83;100.00
24746;BME280;12845;52.042;6.838;2022-12-15T05:09:02;65950.03;;;-7.58;100.00
24746;BME280;12845;52.042;6.838;2022-12-15T05:11:46;65960.03;;;-7.56;100.00
24746;BME280;12845;52.042;6.838;2022-12-15T05:14:31;65973.84;;;-7.38;100.00
24746;BME280;12845;52.042;6.838;2022-12-15T05:17:14;65992.41;;;-7.26;100.00
24746;BME280;12845;52.042;6.838;2022-12-15T05:19:58;66008.03;;;-7.12;100.00
24746;BME280;12845;52.042;6.838;2022-12-15T05:22:42;65996.53;;;-7.20;100.00
24746;BME280;12845;52.042;6.838;2022-12-15T05:25:26;65981.31;;;-7.29;100.00
24746;BME280;12845;52.042;6.838;2022-12-15T05:28:09;65990.38;;;-7.26;100.00
24746;BME280;12845;52.042;6.838;2022-12-15T05:30:53;66008.13;;;-7.05;100.00
24746;BME280;12845;52.042;6.838;2022-12-15T05:33:37;66014.06;;;-7.01;100.00
24746;BME280;12845;52.042;6.838;2022-12-15T05:36:03;66015.72;;;-7.00;100.00
24746;BME280;12845;52.042;6.838;2022-12-15T05:38:28;66020.53;;;-6.98;100.00
24746;BME280;12845;52.042;6.838;2022-12-15T05:40:56;66021.09;;;-6.97;100.00
24746;BME280;12845;52.042;6.838;2022-12-15T05:43:22;66016.34;;;-6.92;100.00
24746;BME280;12845;52.042;6.838;2022-12-15T05:45:47;66027.09;;;-6.87;100.00
24746;BME280;12845;52.042;6.838;2022-12-15T05:48:13;66028.22;;;-6.86;100.00
24746;BME280;12845;52.042;6.838;2022-12-15T05:50:38;66032.28;;;-6.87;100.00
24746;BME280;12845;52.042;6.838;2022-12-15T05:53:04;66034.50;;;-6.85;100.00
24746;BME280;12845;52.042;6.838;2022-12-15T05:55:29;66041.78;;;-6.78;100.00
24746;BME280;12845;52.042;6.838;2022-12-15T05:57:55;66034.91;;;-6.80;100.00
24746;BME280;12845;52.042;6.838;2022-12-15T06:00:20;66043.09;;;-6.75;100.00
24746;BME280;12845;52.042;6.838;2022-12-15T06:02:46;66045.69;;;-6.75;100.00
24746;BME280;12845;52.042;6.838;2022-12-15T06:05:11;66044.41;;;-6.71;100.00
24746;BME280;12845;52.042;6.838;2022-12-15T06:07:36;66049.03;;;-6.72;100.00
24746;BME280;12845;52.042;6.838;2022-12-15T06:10:03;66051.25;;;-6.70;100.00
24746;BME280;12845;52.042;6.838;2022-12-15T06:12:29;66050.91;;;-6.68;100.00
24746;BME280;12845;52.042;6.838;2022-12-15T06:14:54;66052.03;;;-6.67;100.00
24746;BME280;12845;52.042;6.838;2022-12-15T06:17:20;66053.47;;;-6.68;100.00
24746;BME280;12845;52.042;6.838;2022-12-15T06:19:45;66048.88;;;-6.67;100.00
24746;BME280;12845;52.042;6.838;2022-12-15T06:22:11;66047.19;;;-6.69;100.00
24746;BME280;12845;52.042;6.838;2022-12-15T06:24:36;66051.09;;;-6.65;100.00
24746;BME280;12845;52.042;6.838;2022-12-15T06:27:02;66053.13;;;-6.66;100.00
24746;BME280;12845;52.042;6.838;2022-12-15T06:29:27;66056.06;;;-6.68;100.00
24746;BME280;12845;52.042;6.838;2022-12-15T06:31:52;66049.78;;;-6.69;100.00
24746;BME280;12845;52.042;6.838;2022-12-15T06:34:18;66050.91;;;-6.68;100.00
24746;BME280;12845;52.042;6.838;2022-12-15T06:36:44;66048.88;;;-6.67;100.00
24746;BME280;12845;52.042;6.838;2022-12-15T06:39:14;66049.78;;;-6.69;100.00
24746;BME280;12845;52.042;6.838;2022-12-15T06:41:40;66053.47;;;-6.68;100.00
24746;BME280;12845;52.042;6.838;2022-12-15T06:44:06;66046.09;;;-6.70;100.00
24746;BME280;12845;52.042;6.838;2022-12-15T06:46:32;66044.97;;;-6.71;100.00
24746;BME280;12845;52.042;6.838;2022-12-15T06:48:59;66048.88;;;-6.67;100.00
24746;BME280;12845;52.042;6.838;2022-12-15T06:51:25;66052.94;;;-6.68;100.00
24746;BME280;12845;52.042;6.838;2022-12-15T06:53:51;66055.16;;;-6.66;100.00
24746;BME280;12845;52.042;6.838;2022-12-15T06:56:32;66047.75;;;-6.68;100.00
24746;BME280;12845;52.042;6.838;2022-12-15T06:59:01;66048.09;;;-6.70;100.00
24746;BME280;12845;52.042;6.838;2022-12-15T07:01:28;66051.25;;;-6.70;100.00
24746;BME280;12845;52.042;6.838;2022-12-15T07:03:53;66049.44;;;-6.67;100.00
24746;BME280;12845;52.042;6.838;2022-12-15T07:06:19;66053.47;;;-6.68;100.00
24746;BME280;12845;52.042;6.838;2022-12-15T07:08:48;66046.66;;;-6.69;100.00
24746;BME280;12845;52.042;6.838;2022-12-15T07:11:16;66046.09;;;-6.70;100.00
24746;BME280;12845;52.042;6.838;2022-12-15T07:13:42;66044.41;;;-6.71;100.00
24746;BME280;12845;52.042;6.838;2022-12-15T07:16:08;66041.97;;;-6.76;100.00
24746;BME280;12845;52.042;6.838;2022-12-15T07:18:35;66037.50;;;-6.80;100.00
24746;BME280;12845;52.042;6.838;2022-12-15T07:21:05;66038.81;;;-6.76;100.00
24746;BME280;12845;52.042;6.838;2022-12-15T07:23:31;66040.50;;;-6.75;100.00
24746;BME280;12845;52.042;6.838;2022-12-15T07:25:57;66046.44;;;-6.72;100.00
24746;BME280;12845;52.042;6.838;2022-12-15T07:28:22;66045.50;;;-6.70;100.00
24746;BME280;12845;52.042;6.838;2022-12-15T07:30:48;66048.47;;;-6.72;100.00
24746;BME280;12845;52.042;6.838;2022-12-15T07:33:13;66037.69;;;-6.77;100.00
24746;BME280;12845;52.042;6.838;2022-12-15T07:35:40;66041.06;;;-6.74;100.00
24746;BME280;12845;52.042;6.838;2022-12-15T07:38:06;66048.31;;;-6.68;100.00
24746;BME280;12845;52.042;6.838;2022-12-15T07:40:32;66049.22;;;-6.69;100.00
24746;BME280;12845;52.042;6.838;2022-12-15T07:42:57;66047.00;;;-6.71;100.00
24746;BME280;12845;52.042;6.838;2022-12-15T07:45:22;66047.53;;;-6.71;100.00
24746;BME280;12845;52.042;6.838;2022-12-15T07:47:49;66046.09;;;-6.70;100.00
24746;BME280;12845;52.042;6.838;2022-12-15T07:50:15;66058.72;;;-6.61;100.00
24746;BME280;12845;52.042;6.838;2022-12-15T07:52:41;66057.97;;;-6.64;100.00
24746;BME280;12845;52.042;6.838;2022-12-15T07:55:07;66058.38;;;-6.59;100.00
24746;BME280;12845;52.042;6.838;2022-12-15T07:57:32;66060.75;;;-6.61;100.00
24746;BME280;12845;52.042;6.838;2022-12-15T07:59:58;66059.50;;;-6.57;100.00
24746;BME280;12845;52.042;6.838;2022-12-15T08:02:23;66060.03;;;-6.57;100.00
24746;BME280;12845;52.042;6.838;2022-12-15T08:04:48;66058.94;;;-6.58;100.00
24746;BME280;12845;52.042;6.838;2022-12-15T08:07:14;66058.16;;;-6.61;100.00
24746;BME280;12845;52.042;6.838;2022-12-15T08:09:39;66060.41;;;-6.59;100.00
24746;BME280;12845;52.042;6.838;2022-12-15T08:12:05;66065.97;;;-6.54;100.00
24746;BME280;12845;52.042;6.838;2022-12-15T08:14:30;66070.25;;;-6.52;100.00
24746;BME280;12845;52.042;6.838;2022-12-15T08:16:56;66068.78;;;-6.51;100.00
24746;BME280;12845;52.042;6.838;2022-12-15T08:19:21;66077.88;;;-6.48;100.00
24746;BME280;12845;52.042;6.838;2022-12-15T08:21:47;66073.44;;;-6.45;100.00
24746;BME280;12845;52.042;6.838;2022-12-15T08:24:13;66084.22;;;-6.40;100.00
24746;BME280;12845;52.042;6.838;2022-12-15T08:26:40;66079.97;;;-6.41;100.00
24746;BME280;12845;52.042;6.838;2022-12-15T08:29:08;66086.88;;;-6.32;100.00
24746;BME280;12845;52.042;6.838;2022-12-15T08:31:35;66095.97;;;-6.29;100.00
24746;BME280;12845;52.042;6.838;2022-12-15T08:34:01;66100.41;;;-6.25;100.00
24746;BME280;12845;52.042;6.838;2022-12-15T08:36:27;66100.63;;;-6.22;100.00
24746;BME280;12845;52.042;6.838;2022-12-15T08:38:55;66111.75;;;-6.19;100.00
24746;BME280;12845;52.042;6.838;2022-12-15T08:41:26;66113.84;;;-6.13;100.00
24746;BME280;12845;52.042;6.838;2022-12-15T08:43:53;66115.94;;;-6.06;100.00
24746;BME280;12845;52.042;6.838;2022-12-15T08:46:21;66126.13;;;-6.01;100.00
24746;BME280;12845;52.042;6.838;2022-12-15T08:48:47;66129.13;;;-5.96;100.00
24746;BME280;12845;52.042;6.838;2022-12-15T08:51:13;66135.81;;;-5.90;100.00
24746;BME280;12845;52.042;6.838;2022-12-15T08:53:39;66138.81;;;-5.85;100.00
24746;BME280;12845;52.042;6.838;2022-12-15T08:58:30;66148.88;;;-5.76;100.00
24746;BME280;12845;52.042;6.838;2022-12-15T09:01:03;66160.78;;;-5.70;100.00
24746;BME280;12845;52.042;6.838;2022-12-15T09:03:29;66168.06;;;-5.63;100.00
24746;BME280;12845;52.042;6.838;2022-12-15T09:05:55;66173.84;;;-5.55;100.00
24746;BME280;12845;52.042;6.838;2022-12-15T09:08:22;66184.06;;;-5.51;100.00
24746;BME280;12845;52.042;6.838;2022-12-15T09:10:48;66185.78;;;-5.42;100.00
24746;BME280;12845;52.042;6.838;2022-12-15T09:13:14;66191.94;;;-5.36;100.00
24746;BME280;12845;52.042;6.838;2022-12-15T09:15:39;66203.50;;;-5.28;100.00
24746;BME280;12845;52.042;6.838;2022-12-15T09:18:07;66210.75;;;-5.22;100.00
24746;BME280;12845;52.042;6.838;2022-12-15T09:20:33;66214.13;;;-5.18;100.00
24746;BME280;12845;52.042;6.838;2022-12-15T09:25:23;66230.34;;;-5.04;100.00
24746;BME280;12845;52.042;6.838;2022-12-15T09:27:49;66237.63;;;-4.97;100.00
24746;BME280;12845;52.042;6.838;2022-12-15T09:30:14;66245.44;;;-4.90;100.00
24746;BME280;12845;52.042;6.838;2022-12-15T09:32:39;66260.72;;;-4.81;100.00
24746;BME280;12845;52.042;6.838;2022-12-15T09:35:05;66265.03;;;-4.72;100.00
24746;BME280;12845;52.042;6.838;2022-12-15T09:37:30;66266.38;;;-4.68;100.00
24746;BME280;12845;52.042;6.838;2022-12-15T09:39:56;66275.13;;;-4.63;100.00
24746;BME280;12845;52.042;6.838;2022-12-15T09:42:27;66286.66;;;-4.55;100.00
24746;BME280;12845;52.042;6.838;2022-12-15T09:45:02;66293.59;;;-4.46;100.00
24746;BME280;12845;52.042;6.838;2022-12-15T09:47:55;66301.97;;;-4.38;100.00
24746;BME280;12845;52.042;6.838;2022-12-15T09:50:34;66305.53;;;-4.33;100.00
24746;BME280;12845;52.042;6.838;2022-12-15T09:53:01;66322.50;;;-4.22;100.00
24746;BME280;12845;52.042;6.838;2022-12-15T09:55:31;66327.19;;;-4.15;100.00
24746;BME280;12845;52.042;6.838;2022-12-15T09:58:06;66334.66;;;-4.06;100.00
24746;BME280;12845;52.042;6.838;2022-12-15T10:00:55;66342.50;;;-3.99;100.00
24746;BME280;12845;52.042;6.838;2022-12-15T10:06:14;66352.59;;;-3.90;100.00
24746;BME280;12845;52.042;6.838;2022-12-15T10:16:25;66375.00;;;-3.69;100.00
24746;BME280;12845;52.042;6.838;2022-12-15T10:19:07;66382.09;;;-3.65;100.00
24746;BME280;12845;52.042;6.838;2022-12-15T10:21:36;66389.56;;;-3.56;100.00
24746;BME280;12845;52.042;6.838;2022-12-15T10:24:21;66396.84;;;-3.49;100.00
24746;BME280;12845;52.042;6.838;2022-12-15T10:27:14;66407.28;;;-3.42;100.00
24746;BME280;12845;52.042;6.838;2022-12-15T10:29:44;66405.59;;;-3.44;100.00
24746;BME280;12845;52.042;6.838;2022-12-15T10:32:28;66404.53;;;-3.37;100.00
24746;BME280;12845;52.042;6.838;2022-12-15T10:34:55;66418.13;;;-3.30;100.00
24746;BME280;12845;52.042;6.838;2022-12-15T10:37:20;66427.47;;;-3.24;100.00
24746;BME280;12845;52.042;6.838;2022-12-15T10:42:23;66450.63;;;-3.00;100.00
24746;BME280;12845;52.042;6.838;2022-12-15T10:44:54;66462.22;;;-2.92;100.00
24746;BME280;12845;52.042;6.838;2022-12-15T10:47:23;66470.25;;;-2.82;100.00
24746;BME280;12845;52.042;6.838;2022-12-15T10:49:50;66475.88;;;-2.77;100.00
24746;BME280;12845;52.042;6.838;2022-12-15T10:52:34;66482.97;;;-2.73;100.00
24746;BME280;12845;52.042;6.838;2022-12-15T10:57:29;66494.38;;;-2.60;100.00
24746;BME280;12845;52.042;6.838;2022-12-15T11:02:39;66506.72;;;-2.49;100.00
24746;BME280;12845;52.042;6.838;2022-12-15T11:07:47;66519.63;;;-2.37;100.00
24746;BME280;12845;52.042;6.838;2022-12-15T11:10:19;66531.97;;;-2.26;100.00
24746;BME280;12845;52.042;6.838;2022-12-15T11:20:34;66561.69;;;-1.99;100.00
24746;BME280;12845;52.042;6.838;2022-12-15T11:23:10;66571.03;;;-1.93;100.00
24746;BME280;12845;52.042;6.838;2022-12-15T11:28:15;66591.25;;;-1.67;100.00
24746;BME280;12845;52.042;6.838;2022-12-15T11:30:54;66595.38;;;-1.68;100.00
24746;BME280;12845;52.042;6.838;2022-12-15T11:33:21;66610.88;;;-1.56;100.00
24746;BME280;12845;52.042;6.838;2022-12-15T11:41:40;66638.97;;;-1.31;100.00
24746;BME280;12845;52.042;6.838;2022-12-15T11:44:27;66648.72;;;-1.20;100.00
24746;BME280;12845;52.042;6.838;2022-12-15T11:49:27;66675.28;;;-1.00;100.00
24746;BME280;12845;52.042;6.838;2022-12-15T11:57:34;66692.34;;;-0.75;100.00
24746;BME280;12845;52.042;6.838;2022-12-15T12:00:11;66713.09;;;-0.63;100.00
24746;BME280;12845;52.042;6.838;2022-12-15T12:10:38;66721.16;;;-0.54;100.00
24746;BME280;12845;52.042;6.838;2022-12-15T12:16:17;66744.19;;;-0.33;100.00
24746;BME280;12845;52.042;6.838;2022-12-15T12:19:09;66734.50;;;-0.37;100.00
24746;BME280;12845;52.042;6.838;2022-12-15T12:21:42;66745.31;;;-0.32;100.00
24746;BME280;12845;52.042;6.838;2022-12-15T12:24:18;66746.47;;;-0.31;99.62
24746;BME280;12845;52.042;6.838;2022-12-15T12:26:55;66751.91;;;-0.21;99.48
24746;BME280;12845;52.042;6.838;2022-12-15T12:37:30;66774.38;;;-0.01;98.56
24746;BME280;12845;52.042;6.838;2022-12-15T12:40:15;66788.06;;;0.07;98.70
24746;BME280;12845;52.042;6.838;2022-12-15T12:42:52;66800.78;;;0.16;98.74
24746;BME280;12845;52.042;6.838;2022-12-15T12:47:47;66803.03;;;0.26;97.87
24746;BME280;12845;52.042;6.838;2022-12-15T12:55:33;66818.97;;;0.35;97.06
24746;BME280;12845;52.042;6.838;2022-12-15T12:58:00;66818.97;;;0.35;96.68
24746;BME280;12845;52.042;6.838;2022-12-15T13:00:28;66817.28;;;0.34;96.91
24746;BME280;12845;52.042;6.838;2022-12-15T13:03:15;66821.06;;;0.42;97.40
24746;BME280;12845;52.042;6.838;2022-12-15T13:05:42;66828.53;;;0.44;97.35
24746;BME280;12845;52.042;6.838;2022-12-15T13:10:53;66833.03;;;0.48;98.28
24746;BME280;12845;52.042;6.838;2022-12-15T13:16:23;66839.22;;;0.54;98.82
24746;BME280;12845;52.042;6.838;2022-12-15T13:26:49;66827.78;;;0.41;98.87
24746;BME280;12845;52.042;6.838;2022-12-15T13:29:17;66832.47;;;0.48;98.45
24746;BME280;12845;52.042;6.838;2022-12-15T13:31:47;66835.28;;;0.50;98.21
24746;BME280;12845;52.042;6.838;2022-12-15T13:39:33;66835.28;;;0.50;97.78
24746;BME280;12845;52.042;6.838;2022-12-15T13:44:36;66840.91;;;0.55;99.72
24746;BME280;12845;52.042;6.838;2022-12-15T13:47:14;66847.09;;;0.61;98.68
24746;BME280;12845;52.042;6.838;2022-12-15T13:49:50;66855.34;;;0.66;98.58
24746;BME280;12845;52.042;6.838;2022-12-15T13:52:51;66859.28;;;0.70;98.17
24746;BME280;12845;52.042;6.838;2022-12-15T13:58:15;66846.34;;;0.65;98.46
24746;BME280;12845;52.042;6.838;2022-12-15T14:03:17;66845.25;;;0.64;97.21
24746;BME280;12845;52.042;6.838;2022-12-15T14:23:43;66791.25;;;0.15;99.35
24746;BME280;12845;52.042;6.838;2022-12-15T14:26:11;66777.38;;;-0.03;98.75
24746;BME280;12845;52.042;6.838;2022-12-15T14:28:39;66784.13;;;0.04;99.41
24746;BME280;12845;52.042;6.838;2022-12-15T14:31:13;66775.47;;;-0.07;99.96
24746;BME280;12845;52.042;6.838;2022-12-15T14:33:42;66771.00;;;-0.11;99.98
24746;BME280;12845;52.042;6.838;2022-12-15T14:36:18;66761.63;;;-0.17;100.00
24746;BME280;12845;52.042;6.838;2022-12-15T14:38:59;66750.94;;;-0.27;99.58
24746;BME280;12845;52.042;6.838;2022-12-15T14:41:30;66742.34;;;-0.30;99.90
24746;BME280;12845;52.042;6.838;2022-12-15T14:44:14;66731.69;;;-0.39;99.75
24746;BME280;12845;52.042;6.838;2022-12-15T14:46:48;66730.72;;;-0.45;100.00
24746;BME280;12845;52.042;6.838;2022-12-15T14:49:25;66731.44;;;-0.49;100.00
24746;BME280;12845;52.042;6.838;2022-12-15T14:57:13;66713.09;;;-0.63;100.00
24746;BME280;12845;52.042;6.838;2022-12-15T14:59:41;66708.41;;;-0.70;100.00
24746;BME280;12845;52.042;6.838;2022-12-15T15:04:33;66699.97;;;-0.78;100.00
24746;BME280;12845;52.042;6.838;2022-12-15T15:07:01;66689.72;;;-0.82;100.00
24746;BME280;12845;52.042;6.838;2022-12-15T15:14:32;66672.66;;;-1.00;100.00
24746;BME280;12845;52.042;6.838;2022-12-15T15:19:49;66652.63;;;-1.16;100.00
24746;BME280;12845;52.042;6.838;2022-12-15T15:22:41;66643.09;;;-1.25;100.00
24746;BME280;12845;52.042;6.838;2022-12-15T15:33:07;66633.13;;;-1.39;100.00
24746;BME280;12845;52.042;6.838;2022-12-15T15:35:33;66624.34;;;-1.44;100.00
24746;BME280;12845;52.042;6.838;2022-12-15T15:38:03;66611.66;;;-1.53;100.00
24746;BME280;12845;52.042;6.838;2022-12-15T15:40:31;66597.06;;;-1.67;100.00
24746;BME280;12845;52.042;6.838;2022-12-15T15:42:56;66597.63;;;-1.66;100.00
24746;BME280;12845;52.042;6.838;2022-12-15T15:45:22;66587.88;;;-1.77;100.00
24746;BME280;12845;52.042;6.838;2022-12-15T15:52:42;66564.50;;;-1.96;100.00
24746;BME280;12845;52.042;6.838;2022-12-15T15:55:13;66567.88;;;-1.93;100.00
24746;BME280;12845;52.042;6.838;2022-12-15T15:57:40;66566.19;;;-1.95;100.00
24746;BME280;12845;52.042;6.838;2022-12-15T16:00:16;66560.38;;;-2.02;100.00
24746;BME280;12845;52.042;6.838;2022-12-15T16:02:43;66561.13;;;-1.99;100.00
24746;BME280;12845;52.042;6.838;2022-12-15T16:05:09;66557.75;;;-2.02;100.00
24746;BME280;12845;52.042;6.838;2022-12-15T16:07:35;66540.94;;;-2.18;100.00
24746;BME280;12845;52.042;6.838;2022-12-15T16:10:01;66534.56;;;-2.26;100.00
24746;BME280;12845;52.042;6.838;2022-12-15T16:12:34;66525.78;;;-2.32;100.00
24746;BME280;12845;52.042;6.838;2022-12-15T16:15:11;66520.72;;;-2.36;100.00
24746;BME280;12845;52.042;6.838;2022-12-15T16:17:37;66523.13;;;-2.39;100.00